Pine River, Canada
Current Conditions -  °F | °C
As of 5:00 AM on Friday 24 Oct 2014 (Local Time) from CYDN Reporting Station
Clear Clear  
Wind Chill: 52°   Ceiling: Unl
Heat Index: 52°   Visibility: 9mi
Dew Point: 39°   Wind: 7mph
Humidity: 62%   Direction: 230°SW
Pressure: 29.6"   Gusts: NA
Location:  51.78°N, 100.53°W
Report Text: CYDN 241000Z AUTO 23006KT 9SM CLR 11/04 A2960 RMK SLP030 DENSITY ALT 1100FT
Loading
Personal Weather Stations






























Interactive Weather Map
Tropical Storm Tracking
New forecast layout! Learn more

10-Day Weather Forecast

Advertisements
Track Severe Weather on mobile